Stevens Point, WI (54482)

10:41 PM CDT on September 15, 2014 (GMT -0500)
Wally the Weather Station | Change Station
CLOSE
Current Station
Personal Weather Station
Location: Stevens Point, WI
Elevation: 1095 ft
Nearby Weather Stations
Active Advisory: Frost Advisory

Elev 1095 ft 44.50 °N, 89.52 °W | Updated 5 seconds ago

Clear
Clear
48.2 °F
Feels Like 48 °F
N
0.0
Wind Variable Wind from North
Gusts 0.0 mph

Today
High -- | Low -- °F
--% Chance of Precip.
Yesterday
High -- | Low -- °F
Precip. -- in
6:37 AM 7:08 PM
Waning Gibbous, 49% visible
Pressure 30.18 in
Visibility 10.0 miles
Clouds Clear
Windchill 48 °F
Dew Point 40 °F
Humidity 72%
Rainfall 0.04 in
Snow Depth Not available.
UV 0 out of 12
Pollen 4.20 out of 12
Air Quality Not available.
Flu Activity Not available.
METAR KSTE 160335Z AUTO 00000KT 10SM CLR 06/04 A3018 RMK AO2 T00640036

More Conditions Fewer Conditions

Pressure 30.18 in
Visibility 10.0 miles
Clouds Clear
Windchill 48 °F
Dew Point 40 °F
Humidity 72%
Rainfall 0.04 in
Snow Depth Not available.
UV 0 out of 12
Pollen 4.20 out of 12
Air Quality Not available.
Flu Activity Not available.
METAR KSTE 160335Z AUTO 00000KT 10SM CLR 06/04 A3018 RMK AO2 T00640036

More Conditions Fewer Conditions

10-Day Weather Forecast

Almanac

Astronomy

Sep. 15, 2014 Rise Set
Actual Time 6:37 AM CDT 7:08 PM CDT
Civil Twilight 6:07 AM CDT 7:38 PM CDT
Nautical Twilight 5:33 AM CDT 8:12 PM CDT
Astronomical Twilight 4:57 AM CDT 8:48 PM CDT
Moon 11:38 PM CDT (9/15) 1:51 PM CDT (9/15)
Length of Visible Light 13h 30m
Length of Day
12h 31m
Tomorrow will be 3m 3s shorter.
Waning Gibbous, 49% of the Moon is Illuminated
Today
Waning Gibbous
Sep 24
New
Oct 1
First Quarter
Oct 8
Full
Oct 15
Last Quarter

Today's Extremes

State Highs State Lows

Community

WunderPhotos

Upload Photos

1,753,693 photos uploaded!

Nearby

Snow Depth

Station Depth Elevation
No new snow has been reported.

Earthquake Activity

City Distance Mag. Time & Date
No recent earthquake activity has been reported nearby.
Minimum magnitude displayed is 2.5.

Coastal Water Temperatures

Place Temperature
No Stations Reporting

Nearby Weather Stations